sensor_id;sensor_type;location;lat;lon;timestamp;temperature;humidity
1337;DHT22;662;48.814;9.318;2023-04-16T00:02:09;10.90;74.80
1337;DHT22;662;48.814;9.318;2023-04-16T00:04:35;10.90;74.90
1337;DHT22;662;48.814;9.318;2023-04-16T00:07:01;10.90;75.00
1337;DHT22;662;48.814;9.318;2023-04-16T00:09:26;10.90;75.10
1337;DHT22;662;48.814;9.318;2023-04-16T00:11:52;10.90;75.20
1337;DHT22;662;48.814;9.318;2023-04-16T00:14:18;10.90;75.20
1337;DHT22;662;48.814;9.318;2023-04-16T00:16:43;10.90;75.10
1337;DHT22;662;48.814;9.318;2023-04-16T00:19:09;10.90;75.10
1337;DHT22;662;48.814;9.318;2023-04-16T00:21:34;10.90;75.10
1337;DHT22;662;48.814;9.318;2023-04-16T00:24:00;10.80;75.10
1337;DHT22;662;48.814;9.318;2023-04-16T00:26:26;10.90;75.30
1337;DHT22;662;48.814;9.318;2023-04-16T00:28:51;10.80;75.20
1337;DHT22;662;48.814;9.318;2023-04-16T00:31:17;10.80;75.20
1337;DHT22;662;48.814;9.318;2023-04-16T00:33:43;10.80;75.30
1337;DHT22;662;48.814;9.318;2023-04-16T00:36:08;10.80;75.40
1337;DHT22;662;48.814;9.318;2023-04-16T00:38:34;10.80;75.40
1337;DHT22;662;48.814;9.318;2023-04-16T00:41:00;10.80;75.30
1337;DHT22;662;48.814;9.318;2023-04-16T00:43:26;10.80;75.30
1337;DHT22;662;48.814;9.318;2023-04-16T00:45:52;10.80;75.40
1337;DHT22;662;48.814;9.318;2023-04-16T00:48:20;10.90;75.50
1337;DHT22;662;48.814;9.318;2023-04-16T00:50:46;10.90;75.60
1337;DHT22;662;48.814;9.318;2023-04-16T00:53:13;10.90;75.50
1337;DHT22;662;48.814;9.318;2023-04-16T00:55:39;10.90;75.50
1337;DHT22;662;48.814;9.318;2023-04-16T00:58:05;10.90;75.50
1337;DHT22;662;48.814;9.318;2023-04-16T01:00:31;10.90;75.40
1337;DHT22;662;48.814;9.318;2023-04-16T01:02:58;10.90;75.30
1337;DHT22;662;48.814;9.318;2023-04-16T01:05:24;10.90;75.10
1337;DHT22;662;48.814;9.318;2023-04-16T01:07:51;10.90;75.10
1337;DHT22;662;48.814;9.318;2023-04-16T01:10:16;10.90;75.10
1337;DHT22;662;48.814;9.318;2023-04-16T01:12:42;10.90;75.00
1337;DHT22;662;48.814;9.318;2023-04-16T01:15:08;10.90;75.10
1337;DHT22;662;48.814;9.318;2023-04-16T01:17:34;10.90;75.20
1337;DHT22;662;48.814;9.318;2023-04-16T01:19:59;10.80;75.20
1337;DHT22;662;48.814;9.318;2023-04-16T01:22:27;10.90;75.40
1337;DHT22;662;48.814;9.318;2023-04-16T01:24:53;10.90;75.50
1337;DHT22;662;48.814;9.318;2023-04-16T01:27:18;10.90;75.50
1337;DHT22;662;48.814;9.318;2023-04-16T01:29:44;10.90;75.40
1337;DHT22;662;48.814;9.318;2023-04-16T01:32:10;10.90;75.30
1337;DHT22;662;48.814;9.318;2023-04-16T01:34:35;10.90;75.40
1337;DHT22;662;48.814;9.318;2023-04-16T01:37:02;10.80;75.40
1337;DHT22;662;48.814;9.318;2023-04-16T01:39:28;10.90;75.50
1337;DHT22;662;48.814;9.318;2023-04-16T01:41:53;10.80;75.40
1337;DHT22;662;48.814;9.318;2023-04-16T01:44:19;10.80;75.50
1337;DHT22;662;48.814;9.318;2023-04-16T01:46:46;10.80;75.70
1337;DHT22;662;48.814;9.318;2023-04-16T01:49:11;10.80;75.70
1337;DHT22;662;48.814;9.318;2023-04-16T01:51:37;10.80;75.60
1337;DHT22;662;48.814;9.318;2023-04-16T01:54:03;10.70;75.60
1337;DHT22;662;48.814;9.318;2023-04-16T01:56:29;10.80;75.80
1337;DHT22;662;48.814;9.318;2023-04-16T01:58:55;10.80;75.80
1337;DHT22;662;48.814;9.318;2023-04-16T02:01:20;10.80;75.80
1337;DHT22;662;48.814;9.318;2023-04-16T02:03:46;10.80;75.90
1337;DHT22;662;48.814;9.318;2023-04-16T02:06:12;10.80;75.80
1337;DHT22;662;48.814;9.318;2023-04-16T02:08:38;10.80;75.80
1337;DHT22;662;48.814;9.318;2023-04-16T02:11:04;10.80;75.90
1337;DHT22;662;48.814;9.318;2023-04-16T02:13:29;10.80;75.90
1337;DHT22;662;48.814;9.318;2023-04-16T02:15:55;10.80;75.90
1337;DHT22;662;48.814;9.318;2023-04-16T02:18:20;10.70;75.80
1337;DHT22;662;48.814;9.318;2023-04-16T02:20:46;10.80;76.00
1337;DHT22;662;48.814;9.318;2023-04-16T02:23:12;10.80;76.00
1337;DHT22;662;48.814;9.318;2023-04-16T02:25:42;10.70;76.00
1337;DHT22;662;48.814;9.318;2023-04-16T02:28:10;10.70;76.00
1337;DHT22;662;48.814;9.318;2023-04-16T02:30:37;10.70;76.00
1337;DHT22;662;48.814;9.318;2023-04-16T02:33:03;10.70;76.00
1337;DHT22;662;48.814;9.318;2023-04-16T02:35:30;10.70;76.10
1337;DHT22;662;48.814;9.318;2023-04-16T02:37:59;10.70;76.20
1337;DHT22;662;48.814;9.318;2023-04-16T02:40:25;10.70;76.20
1337;DHT22;662;48.814;9.318;2023-04-16T02:42:52;10.70;76.30
1337;DHT22;662;48.814;9.318;2023-04-16T02:45:18;10.70;76.40
1337;DHT22;662;48.814;9.318;2023-04-16T02:47:44;10.70;76.40
1337;DHT22;662;48.814;9.318;2023-04-16T02:50:09;10.70;76.50
1337;DHT22;662;48.814;9.318;2023-04-16T02:52:35;10.70;76.50
1337;DHT22;662;48.814;9.318;2023-04-16T02:55:01;10.70;76.50
1337;DHT22;662;48.814;9.318;2023-04-16T02:57:27;10.60;76.50
1337;DHT22;662;48.814;9.318;2023-04-16T02:59:52;10.60;76.50
1337;DHT22;662;48.814;9.318;2023-04-16T03:02:18;10.60;76.70
1337;DHT22;662;48.814;9.318;2023-04-16T03:04:43;10.60;76.80
1337;DHT22;662;48.814;9.318;2023-04-16T03:07:10;10.70;77.00
1337;DHT22;662;48.814;9.318;2023-04-16T03:09:37;10.70;77.00
1337;DHT22;662;48.814;9.318;2023-04-16T03:12:03;10.70;76.90
1337;DHT22;662;48.814;9.318;2023-04-16T03:14:29;10.70;76.90
1337;DHT22;662;48.814;9.318;2023-04-16T03:16:55;10.70;76.80
1337;DHT22;662;48.814;9.318;2023-04-16T03:19:21;10.70;76.80
1337;DHT22;662;48.814;9.318;2023-04-16T03:21:47;10.70;76.80
1337;DHT22;662;48.814;9.318;2023-04-16T03:24:12;10.70;76.90
1337;DHT22;662;48.814;9.318;2023-04-16T03:26:38;10.70;76.90
1337;DHT22;662;48.814;9.318;2023-04-16T03:29:04;10.70;76.90
1337;DHT22;662;48.814;9.318;2023-04-16T03:31:29;10.60;76.90
1337;DHT22;662;48.814;9.318;2023-04-16T03:33:55;10.70;77.00
1337;DHT22;662;48.814;9.318;2023-04-16T03:36:21;10.70;77.00
1337;DHT22;662;48.814;9.318;2023-04-16T03:38:51;10.70;77.00
1337;DHT22;662;48.814;9.318;2023-04-16T03:41:17;10.70;77.00
1337;DHT22;662;48.814;9.318;2023-04-16T03:43:43;10.70;77.00
1337;DHT22;662;48.814;9.318;2023-04-16T03:46:08;10.70;77.00
1337;DHT22;662;48.814;9.318;2023-04-16T03:48:34;10.70;76.90
1337;DHT22;662;48.814;9.318;2023-04-16T03:51:01;10.70;76.90
1337;DHT22;662;48.814;9.318;2023-04-16T03:53:26;10.70;77.70
1337;DHT22;662;48.814;9.318;2023-04-16T03:55:52;10.70;76.90
1337;DHT22;662;48.814;9.318;2023-04-16T03:58:18;10.70;76.90
1337;DHT22;662;48.814;9.318;2023-04-16T04:00:44;10.70;76.90
1337;DHT22;662;48.814;9.318;2023-04-16T04:03:10;10.70;76.90
1337;DHT22;662;48.814;9.318;2023-04-16T04:05:39;10.70;77.60
1337;DHT22;662;48.814;9.318;2023-04-16T04:08:06;10.70;76.80
1337;DHT22;662;48.814;9.318;2023-04-16T04:10:32;10.70;76.80
1337;DHT22;662;48.814;9.318;2023-04-16T04:12:59;10.70;76.80
1337;DHT22;662;48.814;9.318;2023-04-16T04:15:25;10.70;77.40
1337;DHT22;662;48.814;9.318;2023-04-16T04:17:50;10.70;76.80
1337;DHT22;662;48.814;9.318;2023-04-16T04:20:16;10.70;76.80
1337;DHT22;662;48.814;9.318;2023-04-16T04:22:41;10.70;76.80
1337;DHT22;662;48.814;9.318;2023-04-16T04:25:09;10.70;76.80
1337;DHT22;662;48.814;9.318;2023-04-16T04:27:35;10.70;76.80
1337;DHT22;662;48.814;9.318;2023-04-16T04:30:02;10.70;76.70
1337;DHT22;662;48.814;9.318;2023-04-16T04:32:29;10.70;76.70
1337;DHT22;662;48.814;9.318;2023-04-16T04:34:55;10.70;76.80
1337;DHT22;662;48.814;9.318;2023-04-16T04:37:21;10.60;76.70
1337;DHT22;662;48.814;9.318;2023-04-16T04:39:47;10.70;76.90
1337;DHT22;662;48.814;9.318;2023-04-16T04:42:12;10.60;76.80
1337;DHT22;662;48.814;9.318;2023-04-16T04:44:38;10.60;76.90
1337;DHT22;662;48.814;9.318;2023-04-16T04:47:04;10.60;77.00
1337;DHT22;662;48.814;9.318;2023-04-16T04:49:29;10.60;77.10
1337;DHT22;662;48.814;9.318;2023-04-16T04:51:55;10.60;77.20
1337;DHT22;662;48.814;9.318;2023-04-16T04:54:21;10.60;77.20
1337;DHT22;662;48.814;9.318;2023-04-16T04:56:47;10.60;77.30
1337;DHT22;662;48.814;9.318;2023-04-16T04:59:12;10.60;77.30
1337;DHT22;662;48.814;9.318;2023-04-16T05:01:38;10.60;77.10
1337;DHT22;662;48.814;9.318;2023-04-16T05:04:04;10.60;77.00
1337;DHT22;662;48.814;9.318;2023-04-16T05:06:29;10.60;77.10
1337;DHT22;662;48.814;9.318;2023-04-16T05:08:56;10.60;77.10
1337;DHT22;662;48.814;9.318;2023-04-16T05:11:21;10.60;77.20
1337;DHT22;662;48.814;9.318;2023-04-16T05:13:47;10.60;77.30
1337;DHT22;662;48.814;9.318;2023-04-16T05:16:13;10.60;77.20
1337;DHT22;662;48.814;9.318;2023-04-16T05:18:38;10.60;77.30
1337;DHT22;662;48.814;9.318;2023-04-16T05:21:04;10.60;77.30
1337;DHT22;662;48.814;9.318;2023-04-16T05:23:30;10.60;77.30
1337;DHT22;662;48.814;9.318;2023-04-16T05:25:55;10.60;77.30
1337;DHT22;662;48.814;9.318;2023-04-16T05:28:21;10.60;77.20
1337;DHT22;662;48.814;9.318;2023-04-16T05:30:47;10.60;77.30
1337;DHT22;662;48.814;9.318;2023-04-16T05:33:12;10.60;77.50
1337;DHT22;662;48.814;9.318;2023-04-16T05:35:38;10.60;77.50
1337;DHT22;662;48.814;9.318;2023-04-16T05:38:03;10.60;77.50
1337;DHT22;662;48.814;9.318;2023-04-16T05:40:30;10.60;77.70
1337;DHT22;662;48.814;9.318;2023-04-16T05:42:56;10.60;77.60
1337;DHT22;662;48.814;9.318;2023-04-16T05:45:21;10.60;77.60
1337;DHT22;662;48.814;9.318;2023-04-16T05:47:47;10.60;77.70
1337;DHT22;662;48.814;9.318;2023-04-16T05:50:12;10.60;77.60
1337;DHT22;662;48.814;9.318;2023-04-16T05:52:38;10.60;77.70
1337;DHT22;662;48.814;9.318;2023-04-16T05:55:04;10.60;77.70
1337;DHT22;662;48.814;9.318;2023-04-16T05:57:31;10.60;77.70
1337;DHT22;662;48.814;9.318;2023-04-16T05:59:57;10.60;77.70
1337;DHT22;662;48.814;9.318;2023-04-16T06:02:23;10.60;77.70
1337;DHT22;662;48.814;9.318;2023-04-16T06:04:49;10.60;77.80
1337;DHT22;662;48.814;9.318;2023-04-16T06:07:14;10.60;77.80
1337;DHT22;662;48.814;9.318;2023-04-16T06:09:40;10.60;77.80
1337;DHT22;662;48.814;9.318;2023-04-16T06:12:07;10.60;77.80
1337;DHT22;662;48.814;9.318;2023-04-16T06:14:32;10.60;77.90
1337;DHT22;662;48.814;9.318;2023-04-16T06:16:58;10.60;77.90
1337;DHT22;662;48.814;9.318;2023-04-16T06:19:24;10.70;78.00
1337;DHT22;662;48.814;9.318;2023-04-16T06:21:50;10.70;78.00
1337;DHT22;662;48.814;9.318;2023-04-16T06:24:15;10.70;78.00
1337;DHT22;662;48.814;9.318;2023-04-16T06:26:43;10.70;77.90
1337;DHT22;662;48.814;9.318;2023-04-16T06:29:09;10.70;77.80
1337;DHT22;662;48.814;9.318;2023-04-16T06:31:36;10.70;77.80
1337;DHT22;662;48.814;9.318;2023-04-16T06:34:01;10.70;77.80
1337;DHT22;662;48.814;9.318;2023-04-16T06:36:27;10.70;77.80
1337;DHT22;662;48.814;9.318;2023-04-16T06:38:53;10.70;77.80
1337;DHT22;662;48.814;9.318;2023-04-16T06:41:19;10.70;77.70
1337;DHT22;662;48.814;9.318;2023-04-16T06:43:44;10.70;77.70
1337;DHT22;662;48.814;9.318;2023-04-16T06:46:11;10.70;77.80
1337;DHT22;662;48.814;9.318;2023-04-16T06:48:37;10.70;77.80
1337;DHT22;662;48.814;9.318;2023-04-16T06:51:02;10.70;78.60
1337;DHT22;662;48.814;9.318;2023-04-16T06:53:28;10.70;77.90
1337;DHT22;662;48.814;9.318;2023-04-16T06:55:54;10.70;77.90
1337;DHT22;662;48.814;9.318;2023-04-16T06:58:20;10.80;78.00
1337;DHT22;662;48.814;9.318;2023-04-16T07:00:46;10.70;77.80
1337;DHT22;662;48.814;9.318;2023-04-16T07:03:12;10.80;77.90
1337;DHT22;662;48.814;9.318;2023-04-16T07:05:38;10.70;77.80
1337;DHT22;662;48.814;9.318;2023-04-16T07:08:04;10.80;77.80
1337;DHT22;662;48.814;9.318;2023-04-16T07:10:30;10.80;77.80
1337;DHT22;662;48.814;9.318;2023-04-16T07:12:56;10.80;77.80
1337;DHT22;662;48.814;9.318;2023-04-16T07:15:21;10.80;77.80
1337;DHT22;662;48.814;9.318;2023-04-16T07:17:47;10.80;77.80
1337;DHT22;662;48.814;9.318;2023-04-16T07:20:12;10.80;77.80
1337;DHT22;662;48.814;9.318;2023-04-16T07:22:38;10.80;77.80
1337;DHT22;662;48.814;9.318;2023-04-16T07:25:04;10.80;77.80
1337;DHT22;662;48.814;9.318;2023-04-16T07:27:30;10.80;77.80
1337;DHT22;662;48.814;9.318;2023-04-16T07:29:55;10.80;77.80
1337;DHT22;662;48.814;9.318;2023-04-16T07:32:21;10.80;77.70
1337;DHT22;662;48.814;9.318;2023-04-16T07:34:47;10.90;77.80
1337;DHT22;662;48.814;9.318;2023-04-16T07:37:12;10.90;77.70
1337;DHT22;662;48.814;9.318;2023-04-16T07:39:38;10.80;77.50
1337;DHT22;662;48.814;9.318;2023-04-16T07:42:04;10.80;77.40
1337;DHT22;662;48.814;9.318;2023-04-16T07:44:30;10.80;77.40
1337;DHT22;662;48.814;9.318;2023-04-16T07:46:56;10.80;77.50
1337;DHT22;662;48.814;9.318;2023-04-16T07:49:21;10.90;77.60
1337;DHT22;662;48.814;9.318;2023-04-16T07:51:47;10.90;77.70
1337;DHT22;662;48.814;9.318;2023-04-16T07:54:13;10.80;77.60
1337;DHT22;662;48.814;9.318;2023-04-16T07:56:38;10.80;77.70
1337;DHT22;662;48.814;9.318;2023-04-16T07:59:04;10.90;77.70
1337;DHT22;662;48.814;9.318;2023-04-16T08:01:30;10.90;77.80
1337;DHT22;662;48.814;9.318;2023-04-16T08:03:56;10.90;77.70
1337;DHT22;662;48.814;9.318;2023-04-16T08:06:22;10.90;77.70
1337;DHT22;662;48.814;9.318;2023-04-16T08:08:47;10.90;77.70
1337;DHT22;662;48.814;9.318;2023-04-16T08:11:13;11.00;77.80
1337;DHT22;662;48.814;9.318;2023-04-16T08:13:39;11.00;77.70
1337;DHT22;662;48.814;9.318;2023-04-16T08:16:05;11.00;77.50
1337;DHT22;662;48.814;9.318;2023-04-16T08:18:31;11.00;77.50
1337;DHT22;662;48.814;9.318;2023-04-16T08:20:57;11.00;77.40
1337;DHT22;662;48.814;9.318;2023-04-16T08:23:22;11.00;77.40
1337;DHT22;662;48.814;9.318;2023-04-16T08:25:48;11.10;77.40
1337;DHT22;662;48.814;9.318;2023-04-16T08:28:13;11.00;77.30
1337;DHT22;662;48.814;9.318;2023-04-16T08:30:40;11.10;77.30
1337;DHT22;662;48.814;9.318;2023-04-16T08:33:05;11.10;77.30
1337;DHT22;662;48.814;9.318;2023-04-16T08:35:31;11.10;77.20
1337;DHT22;662;48.814;9.318;2023-04-16T08:37:57;11.10;77.20
1337;DHT22;662;48.814;9.318;2023-04-16T08:40:25;11.10;77.20
1337;DHT22;662;48.814;9.318;2023-04-16T08:42:54;11.10;77.10
1337;DHT22;662;48.814;9.318;2023-04-16T08:45:20;11.20;77.20
1337;DHT22;662;48.814;9.318;2023-04-16T08:47:50;11.20;77.00
1337;DHT22;662;48.814;9.318;2023-04-16T08:50:19;11.20;76.90
1337;DHT22;662;48.814;9.318;2023-04-16T08:52:58;11.30;77.00
1337;DHT22;662;48.814;9.318;2023-04-16T08:55:38;11.20;76.60
1337;DHT22;662;48.814;9.318;2023-04-16T08:58:18;11.20;76.60
1337;DHT22;662;48.814;9.318;2023-04-16T09:00:44;11.20;76.60
1337;DHT22;662;48.814;9.318;2023-04-16T09:03:11;11.30;76.60
1337;DHT22;662;48.814;9.318;2023-04-16T09:05:38;11.30;76.60
1337;DHT22;662;48.814;9.318;2023-04-16T09:08:07;11.30;76.70
1337;DHT22;662;48.814;9.318;2023-04-16T09:10:34;11.30;76.70
1337;DHT22;662;48.814;9.318;2023-04-16T09:13:00;11.30;76.70
1337;DHT22;662;48.814;9.318;2023-04-16T09:15:26;11.40;76.70
1337;DHT22;662;48.814;9.318;2023-04-16T09:17:52;11.40;76.70
1337;DHT22;662;48.814;9.318;2023-04-16T09:20:19;11.40;76.60
1337;DHT22;662;48.814;9.318;2023-04-16T09:22:45;11.50;76.70
1337;DHT22;662;48.814;9.318;2023-04-16T09:25:16;11.50;76.60
1337;DHT22;662;48.814;9.318;2023-04-16T09:27:42;11.50;76.40
1337;DHT22;662;48.814;9.318;2023-04-16T09:30:25;11.50;76.40
1337;DHT22;662;48.814;9.318;2023-04-16T09:32:53;11.50;76.40
1337;DHT22;662;48.814;9.318;2023-04-16T09:35:44;11.50;76.50
1337;DHT22;662;48.814;9.318;2023-04-16T09:38:13;11.50;76.40
1337;DHT22;662;48.814;9.318;2023-04-16T09:40:38;11.50;76.40
1337;DHT22;662;48.814;9.318;2023-04-16T09:43:15;11.60;76.50
1337;DHT22;662;48.814;9.318;2023-04-16T09:45:49;11.60;76.40
1337;DHT22;662;48.814;9.318;2023-04-16T09:48:15;11.60;76.30
1337;DHT22;662;48.814;9.318;2023-04-16T09:50:49;11.50;76.00
1337;DHT22;662;48.814;9.318;2023-04-16T09:53:23;11.50;75.90
1337;DHT22;662;48.814;9.318;2023-04-16T09:55:50;11.50;75.90
1337;DHT22;662;48.814;9.318;2023-04-16T09:58:18;11.40;76.00
1337;DHT22;662;48.814;9.318;2023-04-16T10:00:44;11.40;76.00
1337;DHT22;662;48.814;9.318;2023-04-16T10:03:10;11.40;76.20
1337;DHT22;662;48.814;9.318;2023-04-16T10:05:36;11.40;76.30
1337;DHT22;662;48.814;9.318;2023-04-16T10:08:10;11.40;76.20
1337;DHT22;662;48.814;9.318;2023-04-16T10:10:36;11.40;76.30
1337;DHT22;662;48.814;9.318;2023-04-16T10:13:02;11.40;76.30
1337;DHT22;662;48.814;9.318;2023-04-16T10:15:28;11.40;76.40
1337;DHT22;662;48.814;9.318;2023-04-16T10:17:55;11.40;76.40
1337;DHT22;662;48.814;9.318;2023-04-16T10:20:23;11.30;76.40
1337;DHT22;662;48.814;9.318;2023-04-16T10:22:49;11.30;76.40
1337;DHT22;662;48.814;9.318;2023-04-16T10:25:15;11.30;76.50
1337;DHT22;662;48.814;9.318;2023-04-16T10:27:42;11.30;76.60
1337;DHT22;662;48.814;9.318;2023-04-16T10:30:10;11.30;76.80
1337;DHT22;662;48.814;9.318;2023-04-16T10:32:36;11.30;76.80
1337;DHT22;662;48.814;9.318;2023-04-16T10:35:03;11.30;77.50
1337;DHT22;662;48.814;9.318;2023-04-16T10:37:30;11.40;76.90
1337;DHT22;662;48.814;9.318;2023-04-16T10:39:57;11.40;76.90
1337;DHT22;662;48.814;9.318;2023-04-16T10:42:24;11.40;76.80
1337;DHT22;662;48.814;9.318;2023-04-16T10:44:50;11.40;76.90
1337;DHT22;662;48.814;9.318;2023-04-16T10:47:16;11.40;76.90
1337;DHT22;662;48.814;9.318;2023-04-16T10:49:41;11.40;76.90
1337;DHT22;662;48.814;9.318;2023-04-16T10:52:13;11.50;77.10
1337;DHT22;662;48.814;9.318;2023-04-16T10:54:42;11.50;77.10
1337;DHT22;662;48.814;9.318;2023-04-16T10:57:14;11.50;77.10
1337;DHT22;662;48.814;9.318;2023-04-16T10:59:42;11.50;77.70
1337;DHT22;662;48.814;9.318;2023-04-16T11:02:12;11.60;77.10
1337;DHT22;662;48.814;9.318;2023-04-16T11:04:41;11.60;77.20
1337;DHT22;662;48.814;9.318;2023-04-16T11:07:15;11.70;77.30
1337;DHT22;662;48.814;9.318;2023-04-16T11:10:03;11.70;77.20
1337;DHT22;662;48.814;9.318;2023-04-16T11:20:02;11.60;76.90
1337;DHT22;662;48.814;9.318;2023-04-16T11:22:29;11.60;76.90
1337;DHT22;662;48.814;9.318;2023-04-16T11:24:55;11.60;76.90
1337;DHT22;662;48.814;9.318;2023-04-16T11:27:22;11.60;76.80
1337;DHT22;662;48.814;9.318;2023-04-16T11:30:07;11.60;76.70
1337;DHT22;662;48.814;9.318;2023-04-16T11:32:37;11.60;76.80
1337;DHT22;662;48.814;9.318;2023-04-16T11:35:13;11.60;77.50
1337;DHT22;662;48.814;9.318;2023-04-16T11:37:41;11.60;76.80
1337;DHT22;662;48.814;9.318;2023-04-16T11:40:07;11.60;76.80
1337;DHT22;662;48.814;9.318;2023-04-16T11:42:34;11.60;76.80
1337;DHT22;662;48.814;9.318;2023-04-16T11:45:06;11.50;76.80
1337;DHT22;662;48.814;9.318;2023-04-16T11:47:41;11.50;77.00
1337;DHT22;662;48.814;9.318;2023-04-16T11:52:48;11.60;77.30
1337;DHT22;662;48.814;9.318;2023-04-16T11:55:14;11.60;77.30
1337;DHT22;662;48.814;9.318;2023-04-16T11:57:40;11.60;77.30
1337;DHT22;662;48.814;9.318;2023-04-16T12:00:06;11.60;77.30
1337;DHT22;662;48.814;9.318;2023-04-16T12:02:41;11.60;77.30
1337;DHT22;662;48.814;9.318;2023-04-16T12:05:31;11.60;77.20
1337;DHT22;662;48.814;9.318;2023-04-16T12:08:02;11.60;77.20
1337;DHT22;662;48.814;9.318;2023-04-16T12:10:51;11.70;77.40
1337;DHT22;662;48.814;9.318;2023-04-16T12:13:17;11.70;77.40
1337;DHT22;662;48.814;9.318;2023-04-16T12:15:45;11.80;77.40
1337;DHT22;662;48.814;9.318;2023-04-16T12:18:11;11.80;77.20
1337;DHT22;662;48.814;9.318;2023-04-16T12:20:42;11.80;77.10
1337;DHT22;662;48.814;9.318;2023-04-16T12:23:09;11.90;77.10
1337;DHT22;662;48.814;9.318;2023-04-16T12:25:41;11.90;77.10
1337;DHT22;662;48.814;9.318;2023-04-16T12:28:07;11.90;76.90
1337;DHT22;662;48.814;9.318;2023-04-16T12:30:33;11.90;76.90
1337;DHT22;662;48.814;9.318;2023-04-16T12:33:15;11.90;76.80
1337;DHT22;662;48.814;9.318;2023-04-16T12:35:41;11.90;76.70
1337;DHT22;662;48.814;9.318;2023-04-16T12:38:08;11.90;76.60
1337;DHT22;662;48.814;9.318;2023-04-16T12:40:34;11.90;76.50
1337;DHT22;662;48.814;9.318;2023-04-16T12:43:01;11.90;76.60
1337;DHT22;662;48.814;9.318;2023-04-16T12:45:27;11.90;76.50
1337;DHT22;662;48.814;9.318;2023-04-16T12:47:54;11.90;76.60
1337;DHT22;662;48.814;9.318;2023-04-16T12:50:20;11.90;76.60
1337;DHT22;662;48.814;9.318;2023-04-16T12:52:46;11.90;76.70
1337;DHT22;662;48.814;9.318;2023-04-16T12:55:12;11.90;76.80
1337;DHT22;662;48.814;9.318;2023-04-16T12:57:38;11.90;76.90
1337;DHT22;662;48.814;9.318;2023-04-16T13:00:05;11.90;76.90
1337;DHT22;662;48.814;9.318;2023-04-16T13:02:32;11.90;76.60
1337;DHT22;662;48.814;9.318;2023-04-16T13:04:58;11.90;76.70
1337;DHT22;662;48.814;9.318;2023-04-16T13:07:29;11.90;76.70
1337;DHT22;662;48.814;9.318;2023-04-16T13:10:02;11.90;76.80
1337;DHT22;662;48.814;9.318;2023-04-16T13:12:28;11.90;76.90
1337;DHT22;662;48.814;9.318;2023-04-16T13:14:54;11.90;76.90
1337;DHT22;662;48.814;9.318;2023-04-16T13:17:20;11.90;77.00
1337;DHT22;662;48.814;9.318;2023-04-16T13:19:45;11.90;77.10
1337;DHT22;662;48.814;9.318;2023-04-16T13:22:11;11.80;77.10
1337;DHT22;662;48.814;9.318;2023-04-16T13:24:37;11.80;77.10
1337;DHT22;662;48.814;9.318;2023-04-16T13:27:03;11.80;77.10
1337;DHT22;662;48.814;9.318;2023-04-16T13:29:30;11.80;77.10
1337;DHT22;662;48.814;9.318;2023-04-16T13:31:56;11.80;77.10
1337;DHT22;662;48.814;9.318;2023-04-16T13:34:21;11.80;77.20
1337;DHT22;662;48.814;9.318;2023-04-16T13:36:47;11.80;77.20
1337;DHT22;662;48.814;9.318;2023-04-16T13:39:13;11.80;77.20
1337;DHT22;662;48.814;9.318;2023-04-16T13:41:40;11.80;77.20
1337;DHT22;662;48.814;9.318;2023-04-16T13:44:06;11.90;77.30
1337;DHT22;662;48.814;9.318;2023-04-16T13:46:32;11.80;77.20
1337;DHT22;662;48.814;9.318;2023-04-16T13:48:57;11.80;77.10
1337;DHT22;662;48.814;9.318;2023-04-16T13:51:23;11.80;77.20
1337;DHT22;662;48.814;9.318;2023-04-16T13:53:49;11.80;77.20
1337;DHT22;662;48.814;9.318;2023-04-16T13:56:15;11.80;77.30
1337;DHT22;662;48.814;9.318;2023-04-16T13:58:40;11.80;77.40
1337;DHT22;662;48.814;9.318;2023-04-16T14:01:06;11.80;77.40
1337;DHT22;662;48.814;9.318;2023-04-16T14:03:32;11.80;77.50
1337;DHT22;662;48.814;9.318;2023-04-16T14:06:01;11.80;77.50
1337;DHT22;662;48.814;9.318;2023-04-16T14:08:28;11.80;77.50
1337;DHT22;662;48.814;9.318;2023-04-16T14:10:55;11.90;77.70
1337;DHT22;662;48.814;9.318;2023-04-16T14:13:21;11.90;77.90
1337;DHT22;662;48.814;9.318;2023-04-16T14:15:46;11.90;77.80
1337;DHT22;662;48.814;9.318;2023-04-16T14:18:12;11.90;77.70
1337;DHT22;662;48.814;9.318;2023-04-16T14:20:41;11.90;77.80
1337;DHT22;662;48.814;9.318;2023-04-16T14:23:06;11.90;77.70
1337;DHT22;662;48.814;9.318;2023-04-16T14:25:32;11.90;77.60
1337;DHT22;662;48.814;9.318;2023-04-16T14:28:01;11.90;77.60
1337;DHT22;662;48.814;9.318;2023-04-16T14:30:27;11.90;77.70
1337;DHT22;662;48.814;9.318;2023-04-16T14:32:52;11.80;77.50
1337;DHT22;662;48.814;9.318;2023-04-16T14:35:19;11.90;77.70
1337;DHT22;662;48.814;9.318;2023-04-16T14:37:45;11.90;77.60
1337;DHT22;662;48.814;9.318;2023-04-16T14:40:11;11.80;77.60
1337;DHT22;662;48.814;9.318;2023-04-16T14:42:38;11.80;77.70
1337;DHT22;662;48.814;9.318;2023-04-16T14:45:04;11.80;77.70
1337;DHT22;662;48.814;9.318;2023-04-16T14:47:31;11.80;77.80
1337;DHT22;662;48.814;9.318;2023-04-16T14:49:58;11.80;77.90
1337;DHT22;662;48.814;9.318;2023-04-16T14:52:24;11.80;77.80
1337;DHT22;662;48.814;9.318;2023-04-16T14:54:51;11.80;77.80
1337;DHT22;662;48.814;9.318;2023-04-16T14:57:17;11.80;77.90
1337;DHT22;662;48.814;9.318;2023-04-16T14:59:43;11.80;78.10
1337;DHT22;662;48.814;9.318;2023-04-16T15:02:08;11.70;78.00
1337;DHT22;662;48.814;9.318;2023-04-16T15:04:35;11.70;78.10
1337;DHT22;662;48.814;9.318;2023-04-16T15:07:00;11.70;78.30
1337;DHT22;662;48.814;9.318;2023-04-16T15:09:26;11.70;78.50
1337;DHT22;662;48.814;9.318;2023-04-16T15:11:52;11.70;78.50
1337;DHT22;662;48.814;9.318;2023-04-16T15:14:18;11.70;78.60
1337;DHT22;662;48.814;9.318;2023-04-16T15:16:44;11.70;78.60
1337;DHT22;662;48.814;9.318;2023-04-16T15:19:11;11.80;78.80
1337;DHT22;662;48.814;9.318;2023-04-16T15:21:36;11.70;78.70
1337;DHT22;662;48.814;9.318;2023-04-16T15:24:02;11.80;78.70
1337;DHT22;662;48.814;9.318;2023-04-16T15:26:29;11.80;78.70
1337;DHT22;662;48.814;9.318;2023-04-16T15:28:54;11.80;78.70
1337;DHT22;662;48.814;9.318;2023-04-16T15:31:20;11.80;78.70
1337;DHT22;662;48.814;9.318;2023-04-16T15:33:46;11.80;78.70
1337;DHT22;662;48.814;9.318;2023-04-16T15:36:12;11.80;78.70
1337;DHT22;662;48.814;9.318;2023-04-16T15:38:39;11.80;78.70
1337;DHT22;662;48.814;9.318;2023-04-16T15:41:05;11.80;78.70
1337;DHT22;662;48.814;9.318;2023-04-16T15:43:30;11.80;78.70
1337;DHT22;662;48.814;9.318;2023-04-16T15:45:56;11.80;78.60
1337;DHT22;662;48.814;9.318;2023-04-16T15:48:22;11.80;78.60
1337;DHT22;662;48.814;9.318;2023-04-16T15:50:50;11.80;78.70
1337;DHT22;662;48.814;9.318;2023-04-16T15:53:16;11.80;78.70
1337;DHT22;662;48.814;9.318;2023-04-16T15:55:42;11.80;78.80
1337;DHT22;662;48.814;9.318;2023-04-16T15:58:08;11.80;78.90
1337;DHT22;662;48.814;9.318;2023-04-16T16:00:34;11.80;78.90
1337;DHT22;662;48.814;9.318;2023-04-16T16:02:59;11.80;79.10
1337;DHT22;662;48.814;9.318;2023-04-16T16:05:25;11.70;79.00
1337;DHT22;662;48.814;9.318;2023-04-16T16:07:51;11.80;79.20
1337;DHT22;662;48.814;9.318;2023-04-16T16:10:17;11.70;79.20
1337;DHT22;662;48.814;9.318;2023-04-16T16:12:44;11.70;79.20
1337;DHT22;662;48.814;9.318;2023-04-16T16:15:11;11.70;79.40
1337;DHT22;662;48.814;9.318;2023-04-16T16:17:37;11.70;79.40
1337;DHT22;662;48.814;9.318;2023-04-16T16:20:03;11.70;79.50
1337;DHT22;662;48.814;9.318;2023-04-16T16:22:31;11.70;79.60
1337;DHT22;662;48.814;9.318;2023-04-16T16:24:56;11.70;79.60